sensor_id;sensor_type;location;lat;lon;timestamp;P1;durP1;ratioP1;P2;durP2;ratioP2
18188;SDS011;9219;50.396;8.546;2022-12-10T00:05:52;29.33;;;14.00;;
18188;SDS011;9219;50.396;8.546;2022-12-10T00:08:20;32.23;;;13.90;;
18188;SDS011;9219;50.396;8.546;2022-12-10T00:10:48;25.63;;;12.27;;
18188;SDS011;9219;50.396;8.546;2022-12-10T00:13:15;28.33;;;12.77;;
18188;SDS011;9219;50.396;8.546;2022-12-10T00:15:42;26.67;;;12.53;;
18188;SDS011;9219;50.396;8.546;2022-12-10T00:18:09;27.03;;;13.00;;
18188;SDS011;9219;50.396;8.546;2022-12-10T00:20:37;28.90;;;13.80;;
18188;SDS011;9219;50.396;8.546;2022-12-10T00:25:48;24.17;;;11.93;;
18188;SDS011;9219;50.396;8.546;2022-12-10T00:28:16;25.80;;;12.90;;
18188;SDS011;9219;50.396;8.546;2022-12-10T00:30:43;29.10;;;13.37;;
18188;SDS011;9219;50.396;8.546;2022-12-10T00:33:10;28.73;;;13.33;;
18188;SDS011;9219;50.396;8.546;2022-12-10T00:35:38;27.77;;;13.50;;
18188;SDS011;9219;50.396;8.546;2022-12-10T00:38:05;33.13;;;14.60;;
18188;SDS011;9219;50.396;8.546;2022-12-10T00:40:32;30.37;;;13.73;;
18188;SDS011;9219;50.396;8.546;2022-12-10T00:43:01;30.53;;;15.57;;
18188;SDS011;9219;50.396;8.546;2022-12-10T00:51:05;25.63;;;13.23;;
18188;SDS011;9219;50.396;8.546;2022-12-10T00:53:35;25.50;;;13.00;;
18188;SDS011;9219;50.396;8.546;2022-12-10T00:56:04;31.43;;;14.33;;
18188;SDS011;9219;50.396;8.546;2022-12-10T00:58:34;30.97;;;13.83;;
18188;SDS011;9219;50.396;8.546;2022-12-10T01:01:08;30.20;;;14.20;;
18188;SDS011;9219;50.396;8.546;2022-12-10T01:03:38;25.80;;;13.37;;
18188;SDS011;9219;50.396;8.546;2022-12-10T01:09:33;27.10;;;12.93;;
18188;SDS011;9219;50.396;8.546;2022-12-10T01:12:03;26.33;;;12.57;;
18188;SDS011;9219;50.396;8.546;2022-12-10T01:14:32;28.47;;;12.30;;
18188;SDS011;9219;50.396;8.546;2022-12-10T01:17:03;19.70;;;11.13;;
18188;SDS011;9219;50.396;8.546;2022-12-10T01:19:32;24.40;;;12.00;;
18188;SDS011;9219;50.396;8.546;2022-12-10T01:22:01;24.07;;;11.67;;
18188;SDS011;9219;50.396;8.546;2022-12-10T01:24:30;27.10;;;12.47;;
18188;SDS011;9219;50.396;8.546;2022-12-10T01:26:58;25.13;;;11.43;;
18188;SDS011;9219;50.396;8.546;2022-12-10T01:29:26;25.20;;;13.27;;
18188;SDS011;9219;50.396;8.546;2022-12-10T01:37:00;26.63;;;12.83;;
18188;SDS011;9219;50.396;8.546;2022-12-10T01:39:28;23.90;;;11.80;;
18188;SDS011;9219;50.396;8.546;2022-12-10T01:41:56;21.10;;;10.80;;
18188;SDS011;9219;50.396;8.546;2022-12-10T01:47:25;24.97;;;11.40;;
18188;SDS011;9219;50.396;8.546;2022-12-10T01:49:54;23.30;;;11.83;;
18188;SDS011;9219;50.396;8.546;2022-12-10T01:52:25;19.60;;;10.40;;
18188;SDS011;9219;50.396;8.546;2022-12-10T01:54:52;24.47;;;12.57;;
18188;SDS011;9219;50.396;8.546;2022-12-10T02:02:36;24.77;;;11.23;;
18188;SDS011;9219;50.396;8.546;2022-12-10T02:05:13;25.67;;;12.30;;
18188;SDS011;9219;50.396;8.546;2022-12-10T02:07:52;22.83;;;10.93;;
18188;SDS011;9219;50.396;8.546;2022-12-10T02:10:28;24.90;;;11.27;;
18188;SDS011;9219;50.396;8.546;2022-12-10T02:13:06;24.73;;;12.07;;
18188;SDS011;9219;50.396;8.546;2022-12-10T02:15:41;24.73;;;12.10;;
18188;SDS011;9219;50.396;8.546;2022-12-10T02:18:15;26.90;;;13.57;;
18188;SDS011;9219;50.396;8.546;2022-12-10T02:25:53;20.80;;;11.80;;
18188;SDS011;9219;50.396;8.546;2022-12-10T02:28:26;23.90;;;12.50;;
18188;SDS011;9219;50.396;8.546;2022-12-10T02:31:01;23.07;;;12.07;;
18188;SDS011;9219;50.396;8.546;2022-12-10T02:33:31;25.83;;;12.13;;
18188;SDS011;9219;50.396;8.546;2022-12-10T02:36:03;21.93;;;10.87;;
18188;SDS011;9219;50.396;8.546;2022-12-10T02:38:32;24.10;;;12.80;;
18188;SDS011;9219;50.396;8.546;2022-12-10T02:41:03;23.17;;;11.80;;
18188;SDS011;9219;50.396;8.546;2022-12-10T02:43:33;25.37;;;12.07;;
18188;SDS011;9219;50.396;8.546;2022-12-10T02:51:09;28.10;;;11.93;;
18188;SDS011;9219;50.396;8.546;2022-12-10T02:53:40;26.57;;;12.90;;
18188;SDS011;9219;50.396;8.546;2022-12-10T02:56:13;26.00;;;11.60;;
18188;SDS011;9219;50.396;8.546;2022-12-10T02:58:49;25.10;;;11.87;;
18188;SDS011;9219;50.396;8.546;2022-12-10T03:01:33;27.40;;;12.60;;
18188;SDS011;9219;50.396;8.546;2022-12-10T03:04:10;24.97;;;12.70;;
18188;SDS011;9219;50.396;8.546;2022-12-10T03:09:51;29.47;;;12.60;;
18188;SDS011;9219;50.396;8.546;2022-12-10T03:12:23;30.00;;;14.17;;
18188;SDS011;9219;50.396;8.546;2022-12-10T03:14:56;27.97;;;13.10;;
18188;SDS011;9219;50.396;8.546;2022-12-10T03:17:25;29.63;;;14.17;;
18188;SDS011;9219;50.396;8.546;2022-12-10T03:19:55;23.13;;;11.70;;
18188;SDS011;9219;50.396;8.546;2022-12-10T03:22:27;24.13;;;11.20;;
18188;SDS011;9219;50.396;8.546;2022-12-10T03:24:57;21.63;;;10.77;;
18188;SDS011;9219;50.396;8.546;2022-12-10T03:27:26;25.80;;;12.67;;
18188;SDS011;9219;50.396;8.546;2022-12-10T03:30:17;27.07;;;12.13;;
18188;SDS011;9219;50.396;8.546;2022-12-10T03:32:46;27.83;;;12.77;;
18188;SDS011;9219;50.396;8.546;2022-12-10T03:35:15;31.10;;;14.40;;
18188;SDS011;9219;50.396;8.546;2022-12-10T03:37:43;23.43;;;12.57;;
18188;SDS011;9219;50.396;8.546;2022-12-10T03:40:12;25.90;;;13.93;;
18188;SDS011;9219;50.396;8.546;2022-12-10T03:42:39;24.43;;;11.67;;
18188;SDS011;9219;50.396;8.546;2022-12-10T03:45:07;26.10;;;12.40;;
18188;SDS011;9219;50.396;8.546;2022-12-10T03:47:38;22.43;;;11.90;;
18188;SDS011;9219;50.396;8.546;2022-12-10T03:52:59;23.00;;;11.30;;
18188;SDS011;9219;50.396;8.546;2022-12-10T03:55:27;22.67;;;11.80;;
18188;SDS011;9219;50.396;8.546;2022-12-10T03:57:55;27.40;;;12.27;;
18188;SDS011;9219;50.396;8.546;2022-12-10T04:00:22;22.83;;;12.80;;
18188;SDS011;9219;50.396;8.546;2022-12-10T04:02:49;21.97;;;10.83;;
18188;SDS011;9219;50.396;8.546;2022-12-10T04:05:17;23.17;;;11.40;;
18188;SDS011;9219;50.396;8.546;2022-12-10T04:07:46;25.93;;;13.00;;
18188;SDS011;9219;50.396;8.546;2022-12-10T04:10:16;25.00;;;12.47;;
18188;SDS011;9219;50.396;8.546;2022-12-10T04:17:51;22.70;;;11.90;;
18188;SDS011;9219;50.396;8.546;2022-12-10T04:20:18;27.50;;;13.17;;
18188;SDS011;9219;50.396;8.546;2022-12-10T04:23:04;25.67;;;11.40;;
18188;SDS011;9219;50.396;8.546;2022-12-10T04:25:49;26.07;;;12.83;;
18188;SDS011;9219;50.396;8.546;2022-12-10T04:28:35;22.60;;;11.40;;
18188;SDS011;9219;50.396;8.546;2022-12-10T04:31:02;21.00;;;10.83;;
18188;SDS011;9219;50.396;8.546;2022-12-10T04:33:31;22.67;;;10.77;;
18188;SDS011;9219;50.396;8.546;2022-12-10T04:35:58;23.33;;;11.33;;
18188;SDS011;9219;50.396;8.546;2022-12-10T04:38:39;22.80;;;12.63;;
18188;SDS011;9219;50.396;8.546;2022-12-10T04:41:06;25.97;;;11.60;;
18188;SDS011;9219;50.396;8.546;2022-12-10T04:43:41;24.80;;;10.30;;
18188;SDS011;9219;50.396;8.546;2022-12-10T04:46:10;20.10;;;9.23;;
18188;SDS011;9219;50.396;8.546;2022-12-10T04:48:38;18.80;;;10.20;;
18188;SDS011;9219;50.396;8.546;2022-12-10T04:51:06;24.67;;;11.73;;
18188;SDS011;9219;50.396;8.546;2022-12-10T04:53:33;24.80;;;12.27;;
18188;SDS011;9219;50.396;8.546;2022-12-10T04:56:01;22.10;;;10.37;;
18188;SDS011;9219;50.396;8.546;2022-12-10T05:03:35;22.83;;;11.80;;
18188;SDS011;9219;50.396;8.546;2022-12-10T05:06:05;21.13;;;10.97;;
18188;SDS011;9219;50.396;8.546;2022-12-10T05:08:34;18.97;;;10.70;;
18188;SDS011;9219;50.396;8.546;2022-12-10T05:11:03;22.83;;;11.87;;
18188;SDS011;9219;50.396;8.546;2022-12-10T05:13:31;24.13;;;11.93;;
18188;SDS011;9219;50.396;8.546;2022-12-10T05:16:00;23.20;;;11.37;;
18188;SDS011;9219;50.396;8.546;2022-12-10T05:18:28;20.93;;;11.43;;
18188;SDS011;9219;50.396;8.546;2022-12-10T05:20:58;21.10;;;10.87;;
18188;SDS011;9219;50.396;8.546;2022-12-10T05:39:03;19.17;;;10.00;;
18188;SDS011;9219;50.396;8.546;2022-12-10T05:41:33;18.70;;;10.40;;
18188;SDS011;9219;50.396;8.546;2022-12-10T05:44:04;21.07;;;10.63;;
18188;SDS011;9219;50.396;8.546;2022-12-10T05:46:33;21.13;;;9.50;;
18188;SDS011;9219;50.396;8.546;2022-12-10T05:49:02;19.97;;;10.60;;
18188;SDS011;9219;50.396;8.546;2022-12-10T05:51:32;24.77;;;11.50;;
18188;SDS011;9219;50.396;8.546;2022-12-10T05:54:01;27.03;;;12.60;;
18188;SDS011;9219;50.396;8.546;2022-12-10T05:56:31;20.87;;;11.07;;
18188;SDS011;9219;50.396;8.546;2022-12-10T06:01:55;25.93;;;11.83;;
18188;SDS011;9219;50.396;8.546;2022-12-10T06:04:22;19.67;;;10.20;;
18188;SDS011;9219;50.396;8.546;2022-12-10T06:06:50;28.30;;;12.53;;
18188;SDS011;9219;50.396;8.546;2022-12-10T06:09:17;27.37;;;11.03;;
18188;SDS011;9219;50.396;8.546;2022-12-10T06:11:45;23.13;;;11.00;;
18188;SDS011;9219;50.396;8.546;2022-12-10T06:14:12;22.37;;;12.93;;
18188;SDS011;9219;50.396;8.546;2022-12-10T06:16:40;25.73;;;11.70;;
18188;SDS011;9219;50.396;8.546;2022-12-10T06:22:07;23.37;;;11.77;;
18188;SDS011;9219;50.396;8.546;2022-12-10T06:24:34;25.13;;;11.53;;
18188;SDS011;9219;50.396;8.546;2022-12-10T06:27:02;25.43;;;11.07;;
18188;SDS011;9219;50.396;8.546;2022-12-10T06:29:30;27.17;;;13.23;;
18188;SDS011;9219;50.396;8.546;2022-12-10T06:31:57;24.73;;;13.27;;
18188;SDS011;9219;50.396;8.546;2022-12-10T06:34:25;24.07;;;11.93;;
18188;SDS011;9219;50.396;8.546;2022-12-10T06:36:52;32.27;;;13.43;;
18188;SDS011;9219;50.396;8.546;2022-12-10T06:39:21;26.77;;;12.87;;
18188;SDS011;9219;50.396;8.546;2022-12-10T06:46:54;22.50;;;11.10;;
18188;SDS011;9219;50.396;8.546;2022-12-10T06:49:21;24.73;;;11.70;;
18188;SDS011;9219;50.396;8.546;2022-12-10T06:51:48;20.80;;;11.07;;
18188;SDS011;9219;50.396;8.546;2022-12-10T06:54:17;25.37;;;12.23;;
18188;SDS011;9219;50.396;8.546;2022-12-10T06:56:45;32.47;;;12.60;;
18188;SDS011;9219;50.396;8.546;2022-12-10T06:59:12;26.90;;;14.10;;
18188;SDS011;9219;50.396;8.546;2022-12-10T07:01:40;26.77;;;12.00;;
18188;SDS011;9219;50.396;8.546;2022-12-10T07:04:08;26.17;;;12.60;;
18188;SDS011;9219;50.396;8.546;2022-12-10T07:06:36;31.43;;;14.73;;
18188;SDS011;9219;50.396;8.546;2022-12-10T07:14:05;29.70;;;13.07;;
18188;SDS011;9219;50.396;8.546;2022-12-10T07:16:32;31.97;;;13.77;;
18188;SDS011;9219;50.396;8.546;2022-12-10T07:19:00;26.00;;;12.23;;
18188;SDS011;9219;50.396;8.546;2022-12-10T07:21:29;29.13;;;12.63;;
18188;SDS011;9219;50.396;8.546;2022-12-10T07:23:59;27.43;;;12.87;;
18188;SDS011;9219;50.396;8.546;2022-12-10T07:26:30;32.43;;;13.20;;
18188;SDS011;9219;50.396;8.546;2022-12-10T07:29:00;25.90;;;13.20;;
18188;SDS011;9219;50.396;8.546;2022-12-10T07:31:30;25.40;;;12.13;;
18188;SDS011;9219;50.396;8.546;2022-12-10T07:41:58;29.07;;;12.80;;
18188;SDS011;9219;50.396;8.546;2022-12-10T07:44:27;31.27;;;13.47;;
18188;SDS011;9219;50.396;8.546;2022-12-10T07:46:55;28.90;;;14.40;;
18188;SDS011;9219;50.396;8.546;2022-12-10T07:49:23;30.20;;;13.10;;
18188;SDS011;9219;50.396;8.546;2022-12-10T07:51:50;27.40;;;12.27;;
18188;SDS011;9219;50.396;8.546;2022-12-10T07:54:18;25.93;;;12.63;;
18188;SDS011;9219;50.396;8.546;2022-12-10T07:56:48;29.33;;;13.80;;
18188;SDS011;9219;50.396;8.546;2022-12-10T08:04:32;27.70;;;14.30;;
18188;SDS011;9219;50.396;8.546;2022-12-10T08:06:59;26.93;;;12.17;;
18188;SDS011;9219;50.396;8.546;2022-12-10T08:09:27;31.53;;;15.13;;
18188;SDS011;9219;50.396;8.546;2022-12-10T08:11:55;26.20;;;13.87;;
18188;SDS011;9219;50.396;8.546;2022-12-10T08:14:24;30.47;;;14.17;;
18188;SDS011;9219;50.396;8.546;2022-12-10T08:16:51;29.47;;;13.67;;
18188;SDS011;9219;50.396;8.546;2022-12-10T08:19:19;26.80;;;12.70;;
18188;SDS011;9219;50.396;8.546;2022-12-10T08:21:55;31.90;;;13.90;;
18188;SDS011;9219;50.396;8.546;2022-12-10T08:24:23;26.70;;;13.47;;
18188;SDS011;9219;50.396;8.546;2022-12-10T08:34:53;27.83;;;14.47;;
18188;SDS011;9219;50.396;8.546;2022-12-10T08:37:21;28.30;;;14.17;;
18188;SDS011;9219;50.396;8.546;2022-12-10T08:39:49;33.87;;;13.97;;
18188;SDS011;9219;50.396;8.546;2022-12-10T08:42:17;28.40;;;14.00;;
18188;SDS011;9219;50.396;8.546;2022-12-10T08:44:45;39.80;;;15.47;;
18188;SDS011;9219;50.396;8.546;2022-12-10T08:47:13;30.27;;;14.03;;
18188;SDS011;9219;50.396;8.546;2022-12-10T08:52:35;32.73;;;13.60;;
18188;SDS011;9219;50.396;8.546;2022-12-10T08:55:03;29.40;;;14.97;;
18188;SDS011;9219;50.396;8.546;2022-12-10T08:57:32;34.37;;;14.67;;
18188;SDS011;9219;50.396;8.546;2022-12-10T09:00:01;31.07;;;13.60;;
18188;SDS011;9219;50.396;8.546;2022-12-10T09:02:29;29.83;;;13.73;;
18188;SDS011;9219;50.396;8.546;2022-12-10T09:04:57;30.40;;;14.23;;
18188;SDS011;9219;50.396;8.546;2022-12-10T09:07:25;34.40;;;14.20;;
18188;SDS011;9219;50.396;8.546;2022-12-10T09:09:56;31.60;;;14.33;;
18188;SDS011;9219;50.396;8.546;2022-12-10T09:12:25;29.30;;;14.03;;
18188;SDS011;9219;50.396;8.546;2022-12-10T09:19:58;41.57;;;17.77;;
18188;SDS011;9219;50.396;8.546;2022-12-10T09:22:27;35.47;;;16.07;;
18188;SDS011;9219;50.396;8.546;2022-12-10T09:24:55;35.90;;;15.77;;
18188;SDS011;9219;50.396;8.546;2022-12-10T09:27:25;41.00;;;14.73;;
18188;SDS011;9219;50.396;8.546;2022-12-10T09:29:54;37.70;;;15.07;;
18188;SDS011;9219;50.396;8.546;2022-12-10T09:32:21;31.57;;;14.33;;
18188;SDS011;9219;50.396;8.546;2022-12-10T09:34:50;33.10;;;14.67;;
18188;SDS011;9219;50.396;8.546;2022-12-10T09:37:19;28.43;;;13.13;;
18188;SDS011;9219;50.396;8.546;2022-12-10T09:44:56;26.23;;;12.30;;
18188;SDS011;9219;50.396;8.546;2022-12-10T09:47:33;28.10;;;12.07;;
18188;SDS011;9219;50.396;8.546;2022-12-10T09:50:10;28.67;;;13.87;;
18188;SDS011;9219;50.396;8.546;2022-12-10T09:52:46;28.90;;;12.67;;
18188;SDS011;9219;50.396;8.546;2022-12-10T09:55:17;26.50;;;12.17;;
18188;SDS011;9219;50.396;8.546;2022-12-10T09:57:47;40.20;;;14.83;;
18188;SDS011;9219;50.396;8.546;2022-12-10T10:00:20;29.27;;;13.23;;
18188;SDS011;9219;50.396;8.546;2022-12-10T10:07:51;33.17;;;15.23;;
18188;SDS011;9219;50.396;8.546;2022-12-10T10:10:25;28.90;;;13.43;;
18188;SDS011;9219;50.396;8.546;2022-12-10T10:12:55;29.33;;;13.47;;
18188;SDS011;9219;50.396;8.546;2022-12-10T10:15:29;30.20;;;15.13;;
18188;SDS011;9219;50.396;8.546;2022-12-10T10:17:58;32.63;;;14.87;;
18188;SDS011;9219;50.396;8.546;2022-12-10T10:20:30;30.43;;;14.20;;
18188;SDS011;9219;50.396;8.546;2022-12-10T10:23:00;35.47;;;14.80;;
18188;SDS011;9219;50.396;8.546;2022-12-10T10:31:18;31.23;;;15.10;;
18188;SDS011;9219;50.396;8.546;2022-12-10T10:33:49;30.40;;;14.37;;
18188;SDS011;9219;50.396;8.546;2022-12-10T10:36:23;28.73;;;13.53;;
18188;SDS011;9219;50.396;8.546;2022-12-10T10:38:53;31.07;;;13.40;;
18188;SDS011;9219;50.396;8.546;2022-12-10T10:41:23;29.03;;;14.70;;
18188;SDS011;9219;50.396;8.546;2022-12-10T10:43:58;29.37;;;14.10;;
18188;SDS011;9219;50.396;8.546;2022-12-10T10:46:31;33.43;;;14.47;;
18188;SDS011;9219;50.396;8.546;2022-12-10T10:57:29;25.07;;;12.70;;
18188;SDS011;9219;50.396;8.546;2022-12-10T11:00:02;26.60;;;13.60;;
18188;SDS011;9219;50.396;8.546;2022-12-10T11:02:36;28.63;;;13.63;;
18188;SDS011;9219;50.396;8.546;2022-12-10T11:05:07;27.83;;;13.20;;
18188;SDS011;9219;50.396;8.546;2022-12-10T11:07:42;22.70;;;12.10;;
18188;SDS011;9219;50.396;8.546;2022-12-10T11:10:15;22.80;;;13.27;;
18188;SDS011;9219;50.396;8.546;2022-12-10T11:12:53;23.77;;;13.00;;
18188;SDS011;9219;50.396;8.546;2022-12-10T11:15:33;25.20;;;11.80;;
18188;SDS011;9219;50.396;8.546;2022-12-10T11:18:21;24.17;;;12.63;;
18188;SDS011;9219;50.396;8.546;2022-12-10T11:25:04;28.93;;;13.50;;
18188;SDS011;9219;50.396;8.546;2022-12-10T11:27:44;23.83;;;12.17;;
18188;SDS011;9219;50.396;8.546;2022-12-10T11:30:20;23.83;;;12.87;;
18188;SDS011;9219;50.396;8.546;2022-12-10T11:33:03;26.03;;;12.13;;
18188;SDS011;9219;50.396;8.546;2022-12-10T11:35:47;26.20;;;13.23;;
18188;SDS011;9219;50.396;8.546;2022-12-10T11:43:03;20.53;;;10.93;;
18188;SDS011;9219;50.396;8.546;2022-12-10T11:46:00;21.23;;;10.20;;
18188;SDS011;9219;50.396;8.546;2022-12-10T11:48:41;20.57;;;11.13;;
18188;SDS011;9219;50.396;8.546;2022-12-10T11:51:28;18.47;;;10.77;;
18188;SDS011;9219;50.396;8.546;2022-12-10T11:54:06;21.73;;;11.17;;
18188;SDS011;9219;50.396;8.546;2022-12-10T11:56:47;21.60;;;11.57;;
18188;SDS011;9219;50.396;8.546;2022-12-10T11:59:21;21.20;;;10.37;;
18188;SDS011;9219;50.396;8.546;2022-12-10T12:02:19;22.30;;;11.83;;
18188;SDS011;9219;50.396;8.546;2022-12-10T12:08:09;25.17;;;12.10;;
18188;SDS011;9219;50.396;8.546;2022-12-10T12:10:52;24.77;;;12.53;;
18188;SDS011;9219;50.396;8.546;2022-12-10T12:13:55;22.00;;;11.57;;
18188;SDS011;9219;50.396;8.546;2022-12-10T12:16:29;19.30;;;10.63;;
18188;SDS011;9219;50.396;8.546;2022-12-10T12:19:03;25.73;;;12.17;;
18188;SDS011;9219;50.396;8.546;2022-12-10T12:21:37;25.77;;;11.10;;
18188;SDS011;9219;50.396;8.546;2022-12-10T12:29:13;21.07;;;11.27;;
18188;SDS011;9219;50.396;8.546;2022-12-10T12:31:49;18.63;;;11.30;;
18188;SDS011;9219;50.396;8.546;2022-12-10T12:34:29;24.57;;;11.33;;
18188;SDS011;9219;50.396;8.546;2022-12-10T12:37:11;21.07;;;11.73;;
18188;SDS011;9219;50.396;8.546;2022-12-10T12:39:46;19.57;;;10.10;;
18188;SDS011;9219;50.396;8.546;2022-12-10T12:42:22;22.07;;;10.63;;
18188;SDS011;9219;50.396;8.546;2022-12-10T12:44:58;16.73;;;8.87;;
18188;SDS011;9219;50.396;8.546;2022-12-10T12:47:32;21.57;;;10.67;;
18188;SDS011;9219;50.396;8.546;2022-12-10T12:55:15;20.57;;;10.10;;
18188;SDS011;9219;50.396;8.546;2022-12-10T12:57:49;20.53;;;10.77;;
18188;SDS011;9219;50.396;8.546;2022-12-10T13:00:22;19.33;;;10.50;;
18188;SDS011;9219;50.396;8.546;2022-12-10T13:02:53;20.33;;;10.37;;
18188;SDS011;9219;50.396;8.546;2022-12-10T13:05:51;19.43;;;10.50;;
18188;SDS011;9219;50.396;8.546;2022-12-10T13:08:24;18.17;;;8.93;;
18188;SDS011;9219;50.396;8.546;2022-12-10T13:22:39;18.37;;;9.33;;
18188;SDS011;9219;50.396;8.546;2022-12-10T13:25:17;17.37;;;10.33;;
18188;SDS011;9219;50.396;8.546;2022-12-10T13:27:54;15.33;;;8.40;;
18188;SDS011;9219;50.396;8.546;2022-12-10T13:30:30;16.40;;;8.50;;
18188;SDS011;9219;50.396;8.546;2022-12-10T13:33:16;18.80;;;9.40;;
18188;SDS011;9219;50.396;8.546;2022-12-10T13:35:57;15.37;;;8.33;;
18188;SDS011;9219;50.396;8.546;2022-12-10T13:38:39;17.20;;;9.37;;
18188;SDS011;9219;50.396;8.546;2022-12-10T13:47:03;20.20;;;8.70;;
18188;SDS011;9219;50.396;8.546;2022-12-10T13:49:49;15.13;;;8.17;;
18188;SDS011;9219;50.396;8.546;2022-12-10T13:52:26;13.67;;;7.67;;
18188;SDS011;9219;50.396;8.546;2022-12-10T13:58:09;15.57;;;8.47;;
18188;SDS011;9219;50.396;8.546;2022-12-10T14:00:59;12.73;;;7.87;;
18188;SDS011;9219;50.396;8.546;2022-12-10T14:08:52;13.10;;;7.00;;
18188;SDS011;9219;50.396;8.546;2022-12-10T14:11:24;11.57;;;6.87;;
18188;SDS011;9219;50.396;8.546;2022-12-10T14:14:04;12.50;;;7.07;;
18188;SDS011;9219;50.396;8.546;2022-12-10T14:16:37;10.53;;;6.63;;
18188;SDS011;9219;50.396;8.546;2022-12-10T14:19:11;13.23;;;7.30;;
18188;SDS011;9219;50.396;8.546;2022-12-10T14:21:42;11.80;;;6.53;;
18188;SDS011;9219;50.396;8.546;2022-12-10T14:24:27;14.80;;;8.00;;
18188;SDS011;9219;50.396;8.546;2022-12-10T14:42:40;8.80;;;6.17;;
18188;SDS011;9219;50.396;8.546;2022-12-10T14:45:11;10.27;;;6.17;;
18188;SDS011;9219;50.396;8.546;2022-12-10T14:47:42;13.87;;;6.67;;
18188;SDS011;9219;50.396;8.546;2022-12-10T14:50:16;10.47;;;6.43;;
18188;SDS011;9219;50.396;8.546;2022-12-10T14:52:49;12.13;;;6.73;;
18188;SDS011;9219;50.396;8.546;2022-12-10T14:55:19;11.40;;;6.43;;
18188;SDS011;9219;50.396;8.546;2022-12-10T14:57:51;11.30;;;7.50;;
18188;SDS011;9219;50.396;8.546;2022-12-10T15:05:30;13.43;;;8.10;;
18188;SDS011;9219;50.396;8.546;2022-12-10T15:08:01;13.37;;;8.40;;
18188;SDS011;9219;50.396;8.546;2022-12-10T15:10:32;15.23;;;7.47;;
18188;SDS011;9219;50.396;8.546;2022-12-10T15:13:03;12.47;;;6.57;;
18188;SDS011;9219;50.396;8.546;2022-12-10T15:15:36;12.70;;;6.70;;
18188;SDS011;9219;50.396;8.546;2022-12-10T15:18:11;13.40;;;7.87;;
18188;SDS011;9219;50.396;8.546;2022-12-10T15:20:48;11.00;;;6.40;;
18188;SDS011;9219;50.396;8.546;2022-12-10T15:23:25;12.90;;;7.30;;
18188;SDS011;9219;50.396;8.546;2022-12-10T15:29:39;15.30;;;7.23;;
18188;SDS011;9219;50.396;8.546;2022-12-10T15:32:11;13.53;;;7.40;;
18188;SDS011;9219;50.396;8.546;2022-12-10T15:34:47;12.37;;;7.47;;
18188;SDS011;9219;50.396;8.546;2022-12-10T15:37:23;14.87;;;8.73;;
18188;SDS011;9219;50.396;8.546;2022-12-10T15:39:59;14.40;;;8.17;;
18188;SDS011;9219;50.396;8.546;2022-12-10T15:42:42;14.73;;;8.13;;
18188;SDS011;9219;50.396;8.546;2022-12-10T15:56:18;22.87;;;12.60;;
18188;SDS011;9219;50.396;8.546;2022-12-10T15:58:48;20.60;;;12.33;;
18188;SDS011;9219;50.396;8.546;2022-12-10T16:01:18;31.03;;;12.93;;
18188;SDS011;9219;50.396;8.546;2022-12-10T16:03:48;25.63;;;12.47;;
18188;SDS011;9219;50.396;8.546;2022-12-10T16:06:19;22.20;;;12.57;;
18188;SDS011;9219;50.396;8.546;2022-12-10T16:08:49;24.93;;;12.00;;
18188;SDS011;9219;50.396;8.546;2022-12-10T16:16:26;25.50;;;12.50;;
18188;SDS011;9219;50.396;8.546;2022-12-10T16:18:57;25.50;;;12.53;;
18188;SDS011;9219;50.396;8.546;2022-12-10T16:21:32;23.43;;;11.57;;
18188;SDS011;9219;50.396;8.546;2022-12-10T16:24:03;22.33;;;12.13;;
18188;SDS011;9219;50.396;8.546;2022-12-10T16:26:35;22.93;;;11.37;;
18188;SDS011;9219;50.396;8.546;2022-12-10T16:29:07;20.90;;;11.27;;
18188;SDS011;9219;50.396;8.546;2022-12-10T16:31:44;26.60;;;13.03;;
18188;SDS011;9219;50.396;8.546;2022-12-10T16:41:26;25.90;;;12.43;;
18188;SDS011;9219;50.396;8.546;2022-12-10T16:43:58;22.00;;;11.87;;
18188;SDS011;9219;50.396;8.546;2022-12-10T16:46:30;22.57;;;11.30;;
18188;SDS011;9219;50.396;8.546;2022-12-10T16:49:01;28.00;;;11.47;;
18188;SDS011;9219;50.396;8.546;2022-12-10T16:51:30;25.13;;;10.90;;
18188;SDS011;9219;50.396;8.546;2022-12-10T16:54:04;20.77;;;11.13;;
18188;SDS011;9219;50.396;8.546;2022-12-10T16:56:44;22.27;;;10.97;;
18188;SDS011;9219;50.396;8.546;2022-12-10T17:04:24;21.80;;;10.70;;
18188;SDS011;9219;50.396;8.546;2022-12-10T17:06:53;22.80;;;11.77;;
18188;SDS011;9219;50.396;8.546;2022-12-10T17:09:22;21.83;;;10.37;;
18188;SDS011;9219;50.396;8.546;2022-12-10T17:11:51;17.83;;;10.13;;
18188;SDS011;9219;50.396;8.546;2022-12-10T17:14:21;16.17;;;9.90;;
18188;SDS011;9219;50.396;8.546;2022-12-10T17:16:50;25.40;;;11.00;;
18188;SDS011;9219;50.396;8.546;2022-12-10T17:19:23;20.40;;;10.70;;
18188;SDS011;9219;50.396;8.546;2022-12-10T17:21:57;18.53;;;9.43;;
18188;SDS011;9219;50.396;8.546;2022-12-10T17:29:44;17.67;;;10.67;;
18188;SDS011;9219;50.396;8.546;2022-12-10T17:32:21;23.03;;;10.50;;
18188;SDS011;9219;50.396;8.546;2022-12-10T17:34:51;20.10;;;9.13;;
18188;SDS011;9219;50.396;8.546;2022-12-10T17:37:20;16.93;;;9.97;;
18188;SDS011;9219;50.396;8.546;2022-12-10T17:39:49;22.90;;;11.90;;
18188;SDS011;9219;50.396;8.546;2022-12-10T17:42:17;23.63;;;12.57;;
18188;SDS011;9219;50.396;8.546;2022-12-10T17:44:49;23.40;;;11.93;;
18188;SDS011;9219;50.396;8.546;2022-12-10T17:50:38;25.87;;;11.83;;
18188;SDS011;9219;50.396;8.546;2022-12-10T17:53:07;20.53;;;10.80;;
18188;SDS011;9219;50.396;8.546;2022-12-10T17:55:36;24.97;;;12.03;;
18188;SDS011;9219;50.396;8.546;2022-12-10T17:58:12;28.80;;;12.83;;
18188;SDS011;9219;50.396;8.546;2022-12-10T18:00:40;23.13;;;12.10;;
18188;SDS011;9219;50.396;8.546;2022-12-10T18:03:08;25.07;;;12.83;;
18188;SDS011;9219;50.396;8.546;2022-12-10T18:05:39;25.10;;;12.53;;
18188;SDS011;9219;50.396;8.546;2022-12-10T18:14:53;27.03;;;13.40;;
18188;SDS011;9219;50.396;8.546;2022-12-10T18:17:26;36.50;;;15.10;;
18188;SDS011;9219;50.396;8.546;2022-12-10T18:19:53;21.53;;;11.73;;
18188;SDS011;9219;50.396;8.546;2022-12-10T18:22:31;31.43;;;13.80;;
18188;SDS011;9219;50.396;8.546;2022-12-10T18:25:00;28.87;;;14.07;;
18188;SDS011;9219;50.396;8.546;2022-12-10T18:27:29;27.90;;;12.60;;
18188;SDS011;9219;50.396;8.546;2022-12-10T18:29:59;30.40;;;13.87;;
18188;SDS011;9219;50.396;8.546;2022-12-10T18:32:29;23.27;;;12.97;;
18188;SDS011;9219;50.396;8.546;2022-12-10T18:39:59;28.57;;;13.50;;
18188;SDS011;9219;50.396;8.546;2022-12-10T18:42:30;30.60;;;14.77;;
18188;SDS011;9219;50.396;8.546;2022-12-10T18:45:00;37.90;;;17.20;;
18188;SDS011;9219;50.396;8.546;2022-12-10T18:47:29;33.77;;;15.70;;
18188;SDS011;9219;50.396;8.546;2022-12-10T18:49:58;37.03;;;15.03;;
18188;SDS011;9219;50.396;8.546;2022-12-10T18:52:25;30.20;;;15.13;;
18188;SDS011;9219;50.396;8.546;2022-12-10T18:54:53;33.23;;;15.97;;
18188;SDS011;9219;50.396;8.546;2022-12-10T18:57:24;35.90;;;16.50;;
18188;SDS011;9219;50.396;8.546;2022-12-10T19:05:16;37.70;;;15.60;;
18188;SDS011;9219;50.396;8.546;2022-12-10T19:07:50;33.30;;;15.27;;
18188;SDS011;9219;50.396;8.546;2022-12-10T19:10:24;27.93;;;14.10;;
18188;SDS011;9219;50.396;8.546;2022-12-10T19:12:59;27.57;;;12.97;;
18188;SDS011;9219;50.396;8.546;2022-12-10T19:15:32;26.23;;;13.13;;
18188;SDS011;9219;50.396;8.546;2022-12-10T19:18:10;36.13;;;14.10;;
18188;SDS011;9219;50.396;8.546;2022-12-10T19:20:47;27.70;;;13.73;;
18188;SDS011;9219;50.396;8.546;2022-12-10T19:28:32;32.30;;;13.93;;
18188;SDS011;9219;50.396;8.546;2022-12-10T19:31:04;32.10;;;16.77;;
18188;SDS011;9219;50.396;8.546;2022-12-10T19:33:38;29.30;;;14.70;;
18188;SDS011;9219;50.396;8.546;2022-12-10T19:36:15;37.60;;;15.33;;